createdAt,value
2018-05-02T05:43:22.354Z,1784
2018-05-02T05:44:23.895Z,1804
2018-05-02T05:46:15.598Z,1672
2018-05-02T05:47:17.205Z,1828
2018-05-02T05:49:08.916Z,1880
2018-05-02T05:50:10.520Z,1888
2018-05-02T05:52:02.697Z,1904
2018-05-02T05:53:04.312Z,1912
2018-05-02T05:54:06.036Z,1924
2018-05-02T05:55:07.526Z,1932
2018-05-02T05:56:09.146Z,1944
2018-05-02T05:57:10.755Z,1952
2018-05-02T05:58:12.373Z,1964
2018-05-02T05:59:13.988Z,1976
2018-05-02T06:00:15.595Z,1984
2018-05-02T06:01:17.208Z,1996
2018-05-02T06:02:18.820Z,2008
2018-05-02T06:03:20.431Z,2012
2018-05-02T06:04:22.051Z,2020
2018-05-02T06:05:23.662Z,2028
2018-05-02T06:06:25.279Z,2036
2018-05-02T06:07:26.885Z,2044
2018-05-02T06:08:28.503Z,2052
2018-05-02T06:09:30.120Z,2064
2018-05-02T06:10:31.728Z,2072
2018-05-02T06:11:33.346Z,2080
2018-05-02T06:12:34.971Z,2088
2018-05-02T06:13:36.569Z,2076
2018-05-02T06:14:38.187Z,2116
2018-05-02T06:15:39.803Z,2132
2018-05-02T06:16:41.418Z,2152
2018-05-02T06:17:43.037Z,2180
2018-05-02T06:18:44.662Z,2208
2018-05-02T06:19:46.262Z,2236
2018-05-02T06:20:47.874Z,2260
2018-05-02T06:21:49.487Z,2276
2018-05-02T06:22:51.104Z,2304
2018-05-02T06:23:52.721Z,2328
2018-05-02T06:24:54.332Z,2356
2018-05-02T06:25:55.952Z,2388
2018-05-02T06:26:57.562Z,2424
2018-05-02T06:27:59.173Z,2460
2018-05-02T06:29:00.794Z,2492
2018-05-02T06:30:02.409Z,2520
2018-05-02T06:31:04.018Z,2540
2018-05-02T06:32:05.630Z,2568
2018-05-02T06:33:07.247Z,3176
2018-05-02T06:34:08.861Z,4904
2018-05-02T06:35:10.481Z,6564
2018-05-02T06:36:12.101Z,7172
2018-05-02T06:37:13.717Z,7236
2018-05-02T06:38:15.329Z,7248
2018-05-02T06:39:16.944Z,7308
2018-05-02T06:40:18.566Z,7340
2018-05-02T06:41:20.180Z,7432
2018-05-02T06:42:21.799Z,7796
2018-05-02T06:43:23.472Z,7688
2018-05-02T06:44:25.043Z,7724
2018-05-02T06:45:26.665Z,7844
2018-05-02T06:46:28.287Z,7848
2018-05-02T06:47:29.903Z,7844
2018-05-02T06:48:31.523Z,7924
2018-05-02T06:49:33.149Z,7984
2018-05-02T06:50:34.764Z,7932
2018-05-02T06:51:36.391Z,8004
2018-05-02T06:52:38.011Z,8040
2018-05-02T06:53:39.636Z,8120
2018-05-02T06:54:41.319Z,8156
2018-05-02T06:55:42.881Z,8124
2018-05-02T06:56:44.512Z,8156
2018-05-02T06:57:46.136Z,8136
2018-05-02T06:58:47.755Z,8164
2018-05-02T06:59:49.378Z,8208
2018-05-02T07:00:51.075Z,8236
2018-05-02T07:01:52.629Z,8332
2018-05-02T07:02:54.259Z,8300
2018-05-02T07:03:55.882Z,8208
2018-05-02T07:04:57.505Z,8472
2018-05-02T07:05:59.133Z,8556
2018-05-02T07:07:00.764Z,8568
2018-05-02T07:08:02.383Z,8656
2018-05-02T07:09:04.014Z,8612
2018-05-02T07:10:05.637Z,8632
2018-05-02T07:11:07.259Z,8728
2018-05-02T07:12:08.891Z,8888
2018-05-02T07:13:10.513Z,8944
2018-05-02T07:14:12.136Z,9148
2018-05-02T07:15:13.765Z,9168
2018-05-02T07:16:15.390Z,9324
2018-05-02T07:17:17.014Z,9404
2018-05-02T07:18:18.649Z,9500
2018-05-02T07:19:20.274Z,9588
2018-05-02T07:20:21.900Z,9412
2018-05-02T07:21:23.529Z,9684
2018-05-02T07:22:25.156Z,9644
2018-05-02T07:23:26.786Z,9800
2018-05-02T07:24:28.416Z,9808
2018-05-02T07:25:30.046Z,9920
2018-05-02T07:26:31.678Z,9912
2018-05-02T07:27:33.303Z,9996
2018-05-02T07:28:34.934Z,10156
2018-05-02T07:29:36.566Z,10168
2018-05-02T07:30:38.193Z,10260
2018-05-02T07:31:39.828Z,10264
2018-05-02T07:32:41.584Z,10340
2018-05-02T07:33:43.090Z,10304
2018-05-02T07:34:44.718Z,10416
2018-05-02T07:35:46.350Z,10496
2018-05-02T07:36:47.987Z,10488
2018-05-02T07:37:49.615Z,10548
2018-05-02T07:38:51.254Z,10588
2018-05-02T07:39:52.882Z,10540
2018-05-02T07:40:54.516Z,10676
2018-05-02T07:41:56.151Z,10692
2018-05-02T07:42:57.776Z,10656
2018-05-02T07:43:59.423Z,10660
2018-05-02T07:45:01.045Z,10752
2018-05-02T07:46:02.684Z,10744
2018-05-02T07:47:04.314Z,10788
2018-05-02T07:48:05.950Z,10788
2018-05-02T07:49:07.574Z,10800
2018-05-02T07:50:09.205Z,10840
2018-05-02T07:51:10.839Z,10888
2018-05-02T07:52:12.475Z,10820
2018-05-02T07:53:14.108Z,10864
2018-05-02T07:54:15.736Z,10912
2018-05-02T07:55:17.371Z,10944
2018-05-02T07:56:19.018Z,10860
2018-05-02T07:57:20.638Z,10872
2018-05-02T07:58:22.283Z,10616
2018-05-02T07:59:23.910Z,10404
2018-05-02T08:00:25.542Z,10716
2018-05-02T08:01:27.182Z,10692
2018-05-02T08:02:28.813Z,10872
2018-05-02T08:03:30.447Z,10456
2018-05-02T08:04:32.077Z,10760
2018-05-02T08:05:33.714Z,11060
2018-05-02T08:06:35.347Z,11204
2018-05-02T08:07:36.979Z,11284
2018-05-02T08:08:38.619Z,11280
2018-05-02T08:09:40.246Z,11276
2018-05-02T08:10:41.887Z,11372
2018-05-02T08:11:43.517Z,10304
2018-05-02T08:12:45.159Z,10276
2018-05-02T08:13:46.783Z,9308
2018-05-02T08:14:48.419Z,10280
2018-05-02T08:15:50.052Z,11188
2018-05-02T08:16:51.682Z,11412
2018-05-02T08:17:53.322Z,10824
2018-05-02T08:18:54.949Z,8796
2018-05-02T08:19:56.587Z,9200
2018-05-02T08:20:58.224Z,7728
2018-05-02T08:21:59.939Z,7004
2018-05-02T08:23:01.488Z,6760
2018-05-02T08:24:03.119Z,7484
2018-05-02T08:25:04.752Z,7836
2018-05-02T08:26:06.381Z,8556
2018-05-02T08:27:08.016Z,9616
2018-05-02T08:28:09.649Z,7464
2018-05-02T08:29:11.281Z,8416
2018-05-02T08:30:12.910Z,8408
2018-05-02T08:31:14.541Z,6944
2018-05-02T08:32:16.176Z,6568
2018-05-02T08:33:17.804Z,6784
2018-05-02T08:34:19.439Z,7164
2018-05-02T08:35:21.068Z,7192
2018-05-02T08:36:22.693Z,7068
2018-05-02T08:37:24.330Z,8536
2018-05-02T08:38:25.965Z,7572
2018-05-02T08:39:27.599Z,9428
2018-05-02T08:40:29.228Z,6200
2018-05-02T08:41:30.857Z,9624
2018-05-02T08:42:32.491Z,7872
2018-05-02T08:43:34.109Z,7960
2018-05-02T08:44:35.743Z,7492
2018-05-02T08:45:37.364Z,8016
2018-05-02T08:46:39.000Z,10256
2018-05-02T08:47:40.626Z,12096
2018-05-02T08:48:42.252Z,11624
2018-05-02T08:49:43.885Z,10780
2018-05-02T08:50:45.514Z,10160
2018-05-02T08:51:47.146Z,10244
2018-05-02T08:52:48.769Z,15104
2018-05-02T08:53:50.403Z,12752
2018-05-02T08:54:52.031Z,16092
2018-05-02T08:55:53.661Z,17760
2018-05-02T08:56:55.293Z,14648
2018-05-02T08:57:56.925Z,19232
2018-05-02T08:58:58.553Z,15252
2018-05-02T09:00:00.178Z,14832
2018-05-02T09:01:01.814Z,11428
2018-05-02T09:02:03.446Z,12516
2018-05-02T09:03:05.072Z,18464
2018-05-02T09:04:06.707Z,16484
2018-05-02T09:05:08.335Z,14024
2018-05-02T09:06:09.970Z,16800
2018-05-02T09:07:11.600Z,18784
2018-05-02T09:08:13.224Z,18208
2018-05-02T09:09:14.854Z,18400
2018-05-02T09:10:16.491Z,14428
2018-05-02T09:11:18.124Z,18240
2018-05-02T09:12:19.760Z,16412
2018-05-02T09:13:21.394Z,17952
2018-05-02T09:14:23.021Z,17408
2018-05-02T09:15:24.656Z,17600
2018-05-02T09:16:26.291Z,18496
2018-05-02T09:17:27.919Z,16464
2018-05-02T09:18:29.552Z,18784
2018-05-02T09:19:31.190Z,16636
2018-05-02T09:20:32.819Z,18464
2018-05-02T09:21:34.466Z,20192
2018-05-02T09:22:36.097Z,19360
2018-05-02T09:23:37.727Z,19712
2018-05-02T09:24:39.361Z,21184
2018-05-02T09:25:41.078Z,19232
2018-05-02T09:26:42.631Z,18208
2018-05-02T09:27:44.269Z,22048
2018-05-02T09:28:45.902Z,25056
2018-05-02T09:29:47.539Z,18336
2018-05-02T09:30:49.169Z,11220
2018-05-02T09:31:50.805Z,25920
2018-05-02T09:32:52.444Z,27520
2018-05-02T09:33:54.081Z,43680
2018-05-02T09:34:55.712Z,20000
2018-05-02T09:35:57.352Z,29056
2018-05-02T09:36:58.986Z,33472
2018-05-02T09:38:00.625Z,34688
2018-05-02T09:39:02.264Z,29280
2018-05-02T09:40:03.895Z,34048
2018-05-02T09:41:05.535Z,29312
2018-05-02T09:42:07.172Z,30752
2018-05-02T09:43:08.808Z,11240
2018-05-02T09:44:10.444Z,21440
2018-05-02T09:45:12.075Z,42368
2018-05-02T09:46:13.715Z,43264
2018-05-02T09:47:15.350Z,44704
2018-05-02T09:48:16.992Z,48480
2018-05-02T09:49:18.635Z,49984
2018-05-02T09:50:20.263Z,44128
2018-05-02T09:51:21.903Z,53440
2018-05-02T09:52:23.533Z,55072
2018-05-02T09:53:25.166Z,57184
2018-05-02T09:54:26.808Z,59808
2018-05-02T09:55:28.442Z,61632
2018-05-02T09:56:30.084Z,62336
2018-05-02T09:57:31.717Z,65568
2018-05-02T09:58:33.360Z,68480
2018-05-02T09:59:34.995Z,72544
2018-05-02T10:00:36.629Z,73600
2018-05-02T10:01:38.271Z,73344
2018-05-02T10:02:39.906Z,72160
2018-05-02T10:03:41.543Z,70880
2018-05-02T10:04:43.185Z,71584
2018-05-02T10:05:44.819Z,71616
2018-05-02T10:06:46.460Z,71904
2018-05-02T10:07:48.100Z,55872
2018-05-02T10:08:49.736Z,11080
2018-05-02T10:09:51.379Z,72576
2018-05-02T10:10:53.019Z,72960
2018-05-02T10:11:54.654Z,70336
2018-05-02T10:12:56.294Z,59584
2018-05-02T10:13:57.927Z,63136
2018-05-02T10:14:59.567Z,39168
2018-05-02T10:16:01.211Z,32544
2018-05-02T10:17:03.448Z,15248
2018-05-02T10:18:05.085Z,60096
2018-05-02T10:19:06.720Z,55904
2018-05-02T10:20:08.362Z,54400
2018-05-02T10:21:09.994Z,52160
2018-05-02T10:22:11.636Z,50624
2018-05-02T10:23:13.270Z,48320
2018-05-02T10:24:14.908Z,46560
2018-05-02T10:25:16.549Z,44128
2018-05-02T10:26:18.260Z,42400
2018-05-02T10:27:19.823Z,41216
2018-05-02T10:28:21.462Z,39456
2018-05-02T10:29:23.096Z,37952
2018-05-02T10:30:24.736Z,36768
2018-05-02T10:31:26.383Z,35584
2018-05-02T10:32:28.015Z,35456
2018-05-02T10:33:29.648Z,39360
2018-05-02T10:34:31.282Z,88992
2018-05-02T10:35:32.920Z,120896
2018-05-02T10:36:34.557Z,28160
2018-05-02T10:37:36.199Z,48928
2018-05-02T10:38:37.839Z,47072
2018-05-02T10:39:39.475Z,44064
2018-05-02T10:40:41.108Z,41888
2018-05-02T10:41:42.749Z,41856
2018-05-02T10:42:44.389Z,40224
2018-05-02T10:43:46.027Z,37696
2018-05-02T10:44:47.669Z,35136
2018-05-02T10:45:49.304Z,33920
2018-05-02T10:46:50.943Z,32384
2018-05-02T10:47:52.587Z,27360
2018-05-02T10:48:54.222Z,28608
2018-05-02T10:49:55.864Z,34304
2018-05-02T10:50:57.501Z,31840
2018-05-02T10:51:59.148Z,31136
2018-05-02T10:53:00.784Z,30560
2018-05-02T10:54:02.434Z,30656
2018-05-02T10:55:04.065Z,31872
2018-05-02T10:56:05.699Z,42176
2018-05-02T10:57:07.346Z,81600
2018-05-02T10:58:08.984Z,112096
2018-05-02T10:59:10.623Z,116288
2018-05-02T11:00:12.271Z,116192
2018-05-02T11:01:13.908Z,116992
2018-05-02T11:02:15.574Z,112928
2018-05-02T11:03:17.212Z,93440
2018-05-02T11:04:18.853Z,15760
2018-05-02T11:05:20.491Z,110528
2018-05-02T11:06:22.136Z,107488
2018-05-02T11:07:23.772Z,105952
2018-05-02T11:08:25.502Z,109088
2018-05-02T11:09:27.051Z,99520
2018-05-02T11:10:28.696Z,105728
2018-05-02T11:11:30.332Z,109760
2018-05-02T11:12:31.974Z,106144
2018-05-02T11:13:33.617Z,107520
2018-05-02T11:14:35.255Z,108416
2018-05-02T11:15:36.900Z,110624
2018-05-02T11:16:38.533Z,27392
2018-05-02T11:17:40.173Z,111552
2018-05-02T11:18:41.813Z,111872
2018-05-02T11:19:43.455Z,110208
2018-05-02T11:20:45.095Z,82464
2018-05-02T11:21:46.736Z,46944
2018-05-02T11:22:48.380Z,31136
2018-05-02T11:23:50.017Z,34432
2018-05-02T11:24:51.657Z,35104
2018-05-02T11:25:53.299Z,35936
2018-05-02T11:26:54.936Z,37216
2018-05-02T11:27:56.570Z,35872
2018-05-02T11:28:58.215Z,39712
2018-05-02T11:29:59.852Z,35008
2018-05-02T11:31:01.494Z,33056
2018-05-02T11:32:03.133Z,32448
2018-05-02T11:33:04.769Z,30752
2018-05-02T11:34:06.415Z,29696
2018-05-02T11:35:08.052Z,31008
2018-05-02T11:36:09.694Z,30944
2018-05-02T11:37:11.333Z,31872
2018-05-02T11:38:12.972Z,34656
2018-05-02T11:39:14.614Z,41792
2018-05-02T11:40:16.253Z,57632
2018-05-02T11:41:17.893Z,78208
2018-05-02T11:42:19.545Z,100928
2018-05-02T11:43:21.179Z,101696
2018-05-02T11:44:22.819Z,97024
2018-05-02T11:45:24.459Z,102464
2018-05-02T11:46:26.099Z,101408
2018-05-02T11:47:27.740Z,91008
2018-05-02T11:48:29.380Z,79904
2018-05-02T11:49:31.013Z,90208
2018-05-02T11:50:32.650Z,87040
2018-05-02T11:51:34.300Z,102048
2018-05-02T11:52:35.936Z,107936
2018-05-02T11:53:37.579Z,68992
2018-05-02T11:54:39.219Z,58624
2018-05-02T11:55:40.860Z,89120
2018-05-02T11:56:42.502Z,68544
2018-05-02T11:57:44.182Z,97376
2018-05-02T11:58:45.777Z,81696
2018-05-02T11:59:47.413Z,85632
2018-05-02T12:00:49.045Z,72704
2018-05-02T12:01:50.687Z,73376
2018-05-02T12:02:52.324Z,55584
2018-05-02T12:03:53.961Z,49952
2018-05-02T12:04:55.605Z,52000
2018-05-02T12:05:57.240Z,70016
2018-05-02T12:06:58.869Z,64736
2018-05-02T12:08:00.509Z,67776
2018-05-02T12:09:02.140Z,65664
2018-05-02T12:10:03.782Z,67392
2018-05-02T12:11:05.424Z,72544
2018-05-02T12:12:07.066Z,88224
2018-05-02T12:13:08.702Z,86656
2018-05-02T12:14:10.335Z,81632
2018-05-02T12:15:11.975Z,86880
2018-05-02T12:16:13.609Z,73024
2018-05-02T12:17:15.249Z,69728
2018-05-02T12:18:16.882Z,63648
2018-05-02T12:19:18.524Z,46784
2018-05-02T12:20:20.160Z,49664
2018-05-02T12:21:21.788Z,55936
2018-05-02T12:22:23.429Z,71648
2018-05-02T12:23:25.064Z,72704
2018-05-02T12:24:26.702Z,79616
2018-05-02T12:25:28.339Z,78688
2018-05-02T12:26:29.977Z,71712
2018-05-02T12:27:31.615Z,63840
2018-05-02T12:28:33.248Z,50048
2018-05-02T12:29:34.883Z,56224
2018-05-02T12:30:36.518Z,52640
2018-05-02T12:31:38.146Z,83040
2018-05-02T12:32:39.787Z,82432
2018-05-02T12:33:41.418Z,83360
2018-05-02T12:34:43.059Z,69216
2018-05-02T12:35:44.693Z,61632
2018-05-02T12:36:46.324Z,45312
2018-05-02T12:37:47.959Z,43520
2018-05-02T12:38:49.591Z,52160
2018-05-02T12:39:51.229Z,44960
2018-05-02T12:40:52.888Z,44256
2018-05-02T12:41:54.499Z,50784
2018-05-02T12:42:56.132Z,69792
2018-05-02T12:43:57.761Z,63968
2018-05-02T12:44:59.390Z,58176
2018-05-02T12:46:01.028Z,67552
2018-05-02T12:47:02.662Z,63168
2018-05-02T12:48:04.298Z,77472
2018-05-02T12:49:05.932Z,77856
2018-05-02T12:50:07.557Z,67840
2018-05-02T12:51:09.192Z,68576
2018-05-02T12:52:10.828Z,72448
2018-05-02T12:53:12.457Z,76160
2018-05-02T12:54:14.093Z,75232
2018-05-02T12:55:15.725Z,57408
2018-05-02T12:56:17.388Z,64384
2018-05-02T12:57:18.995Z,69440
2018-05-02T12:58:20.636Z,62560
2018-05-02T12:59:22.263Z,79712
2018-05-02T13:00:23.899Z,57376
2018-05-02T13:01:25.531Z,60736
2018-05-02T13:02:27.192Z,50912
2018-05-02T13:03:28.799Z,56384
2018-05-02T13:04:30.451Z,61728
2018-05-02T13:05:32.064Z,43744
2018-05-02T13:06:33.692Z,45056
2018-05-02T13:07:35.331Z,41888
2018-05-02T13:08:36.970Z,58784
2018-05-02T13:09:38.599Z,48256
2018-05-02T13:10:40.238Z,42144
2018-05-02T13:11:41.867Z,34368
2018-05-02T13:12:43.498Z,40576
2018-05-02T13:13:45.134Z,41952
2018-05-02T13:14:46.759Z,49248
2018-05-02T13:15:48.397Z,45984
2018-05-02T13:16:50.027Z,51040
2018-05-02T13:17:51.657Z,43232
2018-05-02T13:18:53.293Z,38592
2018-05-02T13:19:54.932Z,42656
2018-05-02T13:20:56.559Z,52512
2018-05-02T13:21:58.191Z,57504
2018-05-02T13:22:59.823Z,48480
2018-05-02T13:24:01.456Z,43744
2018-05-02T13:25:03.095Z,43840
2018-05-02T13:26:04.719Z,47264
2018-05-02T13:27:06.346Z,51840
2018-05-02T13:28:07.982Z,47808
2018-05-02T13:29:09.611Z,45088
2018-05-02T13:30:11.249Z,50880
2018-05-02T13:31:12.881Z,37888
2018-05-02T13:32:14.515Z,46656
2018-05-02T13:33:16.165Z,44640
2018-05-02T13:34:17.775Z,31840
2018-05-02T13:35:19.400Z,37792
2018-05-02T13:36:21.038Z,32256
2018-05-02T13:37:22.663Z,32928
2018-05-02T13:38:24.307Z,33984
2018-05-02T13:39:26.047Z,26752
2018-05-02T13:40:27.561Z,31136
2018-05-02T13:41:29.193Z,32896
2018-05-02T13:42:30.821Z,31488
2018-05-02T13:43:32.453Z,30144
2018-05-02T13:44:34.087Z,31424
2018-05-02T13:45:35.715Z,33088
2018-05-02T13:46:37.352Z,32128
2018-05-02T13:47:38.971Z,31200
2018-05-02T13:48:40.602Z,31552
2018-05-02T13:49:42.231Z,30240
2018-05-02T13:50:43.864Z,34624
2018-05-02T13:51:45.494Z,37920
2018-05-02T13:52:47.126Z,36448
2018-05-02T13:53:48.756Z,36384
2018-05-02T13:54:50.386Z,36896
2018-05-02T13:55:52.012Z,35776
2018-05-02T13:56:53.643Z,37088
2018-05-02T13:57:55.277Z,31584
2018-05-02T13:58:56.900Z,37536
2018-05-02T13:59:58.564Z,34144
2018-05-02T14:01:00.232Z,37088
2018-05-02T14:02:01.788Z,33472
2018-05-02T14:03:03.422Z,35648
2018-05-02T14:04:05.048Z,40896
2018-05-02T14:05:06.754Z,40384
2018-05-02T14:06:08.315Z,46848
2018-05-02T14:07:09.946Z,40576
2018-05-02T14:08:11.643Z,47616
2018-05-02T14:09:13.200Z,50912
2018-05-02T14:10:14.831Z,44512
2018-05-02T14:11:16.457Z,47392
2018-05-02T14:12:18.091Z,42080
2018-05-02T14:13:19.723Z,43552
2018-05-02T14:14:21.348Z,29792
2018-05-02T14:15:22.981Z,33344
2018-05-02T14:16:24.609Z,36896
2018-05-02T14:17:26.238Z,33952
2018-05-02T14:18:27.869Z,28768
2018-05-02T14:19:29.494Z,24160
2018-05-02T14:20:31.121Z,22880
2018-05-02T14:21:32.757Z,22848
2018-05-02T14:22:34.382Z,21152
2018-05-02T14:23:36.020Z,27488
2018-05-02T14:24:37.640Z,27392
2018-05-02T14:25:39.261Z,27072
2018-05-02T14:26:40.892Z,28288
2018-05-02T14:27:42.521Z,23552
2018-05-02T14:28:44.156Z,31680
2018-05-02T14:29:45.779Z,42592
2018-05-02T14:30:47.405Z,27744
2018-05-02T14:31:49.036Z,23776
2018-05-02T14:32:50.742Z,30368
2018-05-02T14:33:52.292Z,26496
2018-05-02T14:34:53.921Z,35520
2018-05-02T14:35:55.547Z,28704
2018-05-02T14:36:57.186Z,27008
2018-05-02T14:37:58.808Z,36096
2018-05-02T14:39:00.439Z,20576
2018-05-02T14:40:02.063Z,24320
2018-05-02T14:41:03.691Z,19008
2018-05-02T14:42:05.325Z,20864
2018-05-02T14:43:06.944Z,21504
2018-05-02T14:44:08.579Z,23264
2018-05-02T14:45:10.207Z,24480
2018-05-02T14:46:11.830Z,22752
2018-05-02T14:47:13.460Z,22176
2018-05-02T14:48:15.086Z,22752
2018-05-02T14:49:16.713Z,22976
2018-05-02T14:50:18.347Z,24960
2018-05-02T14:51:19.971Z,22144
2018-05-02T14:52:21.604Z,23680
2018-05-02T14:53:23.225Z,24480
2018-05-02T14:54:24.860Z,26944
2018-05-02T14:55:26.485Z,25984
2018-05-02T14:56:28.109Z,24064
2018-05-02T14:57:29.747Z,22656
2018-05-02T14:58:31.372Z,20640
2018-05-02T14:59:32.999Z,21440
2018-05-02T15:00:34.627Z,19488
2018-05-02T15:01:36.283Z,18080
2018-05-02T15:02:37.883Z,17152
2018-05-02T15:03:39.514Z,16672
2018-05-02T15:04:41.139Z,16928
2018-05-02T15:05:42.770Z,16320
2018-05-02T15:06:44.393Z,16928
2018-05-02T15:07:46.019Z,16016
2018-05-02T15:08:47.649Z,16288
2018-05-02T15:09:49.274Z,15788
2018-05-02T15:10:50.907Z,15612
2018-05-02T15:11:52.538Z,15988
2018-05-02T15:12:54.167Z,15728
2018-05-02T15:13:55.793Z,14652
2018-05-02T15:14:57.420Z,14388
2018-05-02T15:15:59.044Z,14560
2018-05-02T15:17:00.674Z,14476
2018-05-02T15:18:02.325Z,14524
2018-05-02T15:19:03.926Z,14244
2018-05-02T15:20:05.554Z,14228
2018-05-02T15:21:07.181Z,14308
2018-05-02T15:22:08.804Z,14264
2018-05-02T15:23:10.441Z,13832
2018-05-02T15:24:12.066Z,13644
2018-05-02T15:25:13.686Z,13896
2018-05-02T15:26:15.311Z,13064
2018-05-02T15:27:16.945Z,12816
2018-05-02T15:28:18.571Z,12668
2018-05-02T15:29:20.198Z,12460
2018-05-02T15:30:21.827Z,12388
2018-05-02T15:31:23.458Z,12300
2018-05-02T15:32:25.078Z,12164
2018-05-02T15:33:26.710Z,12020
2018-05-02T15:34:28.338Z,12048
2018-05-02T15:35:29.962Z,12040
2018-05-02T15:36:31.592Z,12056
2018-05-02T15:37:33.214Z,12312
2018-05-02T15:38:34.835Z,11984
2018-05-02T15:39:36.465Z,11972
2018-05-02T15:40:38.092Z,11956
2018-05-02T15:41:39.718Z,11876
2018-05-02T15:42:41.340Z,12028
2018-05-02T15:43:42.965Z,11972
2018-05-02T15:44:44.591Z,12140
2018-05-02T15:45:46.218Z,12120
2018-05-02T15:46:47.844Z,11964
2018-05-02T15:47:49.473Z,11920
2018-05-02T15:48:51.103Z,11708
2018-05-02T15:49:52.724Z,11628
2018-05-02T15:50:54.347Z,11496
2018-05-02T15:51:55.977Z,11180
2018-05-02T15:52:57.597Z,10856
2018-05-02T15:53:59.251Z,10652
2018-05-02T15:55:00.879Z,10468
2018-05-02T15:56:02.503Z,10244
2018-05-02T15:57:04.128Z,10048
2018-05-02T15:58:05.869Z,9968
2018-05-02T15:59:07.378Z,9948
2018-05-02T16:00:08.995Z,9892
2018-05-02T16:01:10.620Z,9832
2018-05-02T16:02:12.283Z,9752
2018-05-02T16:03:13.867Z,9808
2018-05-02T16:04:15.493Z,9704
2018-05-02T16:05:17.118Z,9412
2018-05-02T16:06:18.747Z,9320
2018-05-02T16:07:20.363Z,9260
2018-05-02T16:08:21.993Z,9140
2018-05-02T16:09:23.611Z,9076
2018-05-02T16:10:25.241Z,9108
2018-05-02T16:11:26.868Z,9144
2018-05-02T16:12:28.485Z,9080
2018-05-02T16:13:30.109Z,9064
2018-05-02T16:14:31.733Z,9072
2018-05-02T16:15:33.364Z,9020
2018-05-02T16:16:34.980Z,8712
2018-05-02T16:17:36.597Z,8484
2018-05-02T16:18:38.223Z,8332
2018-05-02T16:19:39.845Z,8260
2018-05-02T16:20:41.469Z,8168
2018-05-02T16:21:43.094Z,8040
2018-05-02T16:22:44.716Z,7924
2018-05-02T16:23:46.343Z,7932
2018-05-02T16:24:47.962Z,7808
2018-05-02T16:25:49.586Z,7688
2018-05-02T16:26:51.209Z,7616
2018-05-02T16:27:52.906Z,7472
2018-05-02T16:28:54.451Z,7276
2018-05-02T16:29:56.164Z,7324
2018-05-02T16:30:57.693Z,7256
2018-05-02T16:31:59.326Z,7196
2018-05-02T16:33:00.942Z,7236
2018-05-02T16:34:02.634Z,7160
2018-05-02T16:35:04.186Z,6972
2018-05-02T16:36:05.806Z,6816
2018-05-02T16:37:07.544Z,6648
2018-05-02T16:38:09.163Z,6472
2018-05-02T16:39:10.789Z,6340
2018-05-02T16:40:12.407Z,6196
2018-05-02T16:41:14.032Z,6080
2018-05-02T16:42:15.657Z,5856
2018-05-02T16:43:17.271Z,5156
2018-05-02T16:44:18.895Z,5116
2018-05-02T16:45:20.517Z,5188
2018-05-02T16:46:22.143Z,5708
2018-05-02T16:47:23.760Z,5780
2018-05-02T16:48:25.381Z,5908
2018-05-02T16:49:26.998Z,5888
2018-05-02T16:50:28.791Z,5824
2018-05-02T16:51:30.418Z,5744
2018-05-02T16:52:32.045Z,5712
2018-05-02T16:53:33.668Z,5672
2018-05-02T16:54:35.284Z,5544
2018-05-02T16:55:36.907Z,5392
2018-05-02T16:56:38.600Z,5208
2018-05-02T16:57:40.148Z,5040
2018-05-02T16:58:41.777Z,4936
2018-05-02T16:59:43.397Z,4872
2018-05-02T17:00:45.018Z,4684
2018-05-02T17:01:46.643Z,4504
2018-05-02T17:02:48.260Z,4276
2018-05-02T17:03:49.884Z,4120
2018-05-02T17:04:51.511Z,3992
2018-05-02T17:05:53.132Z,3860
2018-05-02T17:06:54.753Z,3768
2018-05-02T17:07:56.379Z,3660
2018-05-02T17:08:57.994Z,3520
2018-05-02T17:09:59.619Z,3404
2018-05-02T17:11:01.236Z,3292
2018-05-02T17:12:02.862Z,3224
2018-05-02T17:13:04.483Z,3184
2018-05-02T17:14:06.104Z,3072
2018-05-02T17:15:07.734Z,2980
2018-05-02T17:16:09.353Z,2892
2018-05-02T17:17:10.979Z,2840
2018-05-02T17:18:12.595Z,2820
2018-05-02T17:19:14.215Z,2824
2018-05-02T17:20:15.841Z,2796
2018-05-02T17:21:17.457Z,2748
2018-05-02T17:22:19.164Z,2680
2018-05-02T17:23:20.699Z,2620
2018-05-02T17:24:22.317Z,2588
2018-05-02T17:25:23.937Z,2528
2018-05-02T17:26:25.555Z,2516
2018-05-02T17:27:27.185Z,2468
2018-05-02T17:28:28.802Z,2408
2018-05-02T17:29:30.424Z,2336
2018-05-02T17:30:32.045Z,2276
2018-05-02T17:31:33.666Z,2236
2018-05-02T17:32:35.279Z,2192
2018-05-02T17:33:36.902Z,2196
2018-05-02T17:34:38.521Z,2148
2018-05-02T17:35:40.140Z,2100
2018-05-02T17:36:41.767Z,2056
2018-05-02T17:37:43.391Z,2064
2018-05-02T17:38:45.004Z,2072
2018-05-02T17:39:46.627Z,1252
2018-05-02T17:40:48.252Z,2040
2018-05-02T17:41:49.872Z,2056
2018-05-02T17:42:51.499Z,2100
2018-05-02T17:43:53.122Z,2096
2018-05-02T17:44:54.741Z,2040
2018-05-02T17:45:56.356Z,1988
2018-05-02T17:46:57.981Z,1888
2018-05-02T17:47:59.604Z,1736
2018-05-02T17:49:01.220Z,1680
2018-05-02T17:50:02.847Z,1624
2018-05-02T17:51:04.464Z,1568
2018-05-02T17:52:06.082Z,1520
2018-05-02T17:53:07.708Z,1488
2018-05-02T17:54:09.318Z,1432
2018-05-02T17:55:10.939Z,1384
2018-05-02T17:56:12.561Z,1340
2018-05-02T17:57:14.179Z,1300
2018-05-02T17:58:15.799Z,1288
2018-05-02T17:59:17.422Z,1272
2018-05-02T18:00:19.042Z,1256
2018-05-02T18:01:20.656Z,1228
2018-05-02T18:02:22.279Z,1188
2018-05-02T18:03:23.898Z,1152
2018-05-02T18:04:25.541Z,1128
2018-05-02T18:05:27.144Z,1148
2018-05-02T18:06:28.757Z,1152
2018-05-02T18:07:30.373Z,1104
2018-05-02T18:08:31.994Z,1068
2018-05-02T18:09:33.613Z,1040
2018-05-02T18:10:35.240Z,1012
2018-05-02T18:11:36.859Z,1020
2018-05-02T18:12:38.484Z,992
2018-05-02T18:13:40.101Z,968
2018-05-02T18:14:41.720Z,932
2018-05-02T18:15:43.338Z,892
2018-05-02T18:16:44.952Z,844
2018-05-02T18:17:46.575Z,800
2018-05-02T18:18:48.194Z,768
2018-05-02T18:19:49.821Z,748
2018-05-02T18:20:51.435Z,728
2018-05-02T18:21:53.049Z,704
2018-05-02T18:22:54.673Z,680
2018-05-02T18:23:56.288Z,648
2018-05-02T18:24:57.903Z,632
2018-05-02T18:25:59.526Z,608
2018-05-02T18:27:01.140Z,580
2018-05-02T18:28:02.757Z,556
2018-05-02T18:29:04.375Z,528
2018-05-02T18:30:05.994Z,504
2018-05-02T18:31:07.617Z,484
2018-05-02T18:32:09.235Z,464
2018-05-02T18:33:10.848Z,448
2018-05-02T18:34:12.471Z,432
2018-05-02T18:35:14.081Z,412
2018-05-02T18:36:15.700Z,388
2018-05-02T18:37:17.319Z,368
2018-05-02T18:38:18.935Z,340
2018-05-02T18:39:20.553Z,320
2018-05-02T18:40:22.168Z,296
2018-05-02T18:41:23.785Z,276
2018-05-02T18:42:25.404Z,260
2018-05-02T18:43:27.024Z,240
2018-05-02T18:44:28.636Z,224
2018-05-02T18:45:30.261Z,208
2018-05-02T18:46:31.866Z,192
2018-05-02T18:47:33.486Z,180
2018-05-02T18:48:35.109Z,168
2018-05-02T18:49:36.722Z,156
2018-05-02T18:50:38.344Z,140
2018-05-02T18:51:39.959Z,132
2018-05-02T18:52:41.576Z,120
2018-05-02T18:53:43.198Z,112
2018-05-02T18:54:44.885Z,104
2018-05-02T18:55:46.433Z,92
2018-05-02T18:56:48.052Z,88
2018-05-02T18:57:49.707Z,76
2018-05-02T18:58:51.331Z,72
2018-05-02T18:59:52.945Z,64
2018-05-02T19:00:54.565Z,56
2018-05-02T19:01:56.177Z,48
2018-05-02T19:02:57.797Z,44
2018-05-02T19:03:59.444Z,40
2018-05-02T19:05:01.031Z,36
2018-05-02T19:06:02.646Z,32
2018-05-02T19:07:04.259Z,32
2018-05-02T19:08:05.877Z,24
2018-05-02T19:09:07.495Z,20
2018-05-02T19:10:09.114Z,16
2018-05-02T19:11:10.726Z,16